sensor_id;sensor_type;location;lat;lon;timestamp;temperature;humidity
10419;DHT22;5256;48.728;9.140;2022-11-04T00:01:48;9.50;99.90
10419;DHT22;5256;48.728;9.140;2022-11-04T00:04:15;9.50;99.90
10419;DHT22;5256;48.728;9.140;2022-11-04T00:06:41;9.40;99.90
10419;DHT22;5256;48.728;9.140;2022-11-04T00:09:10;9.40;99.90
10419;DHT22;5256;48.728;9.140;2022-11-04T00:11:36;9.40;99.90
10419;DHT22;5256;48.728;9.140;2022-11-04T00:14:21;9.40;99.90
10419;DHT22;5256;48.728;9.140;2022-11-04T00:16:47;9.40;99.90
10419;DHT22;5256;48.728;9.140;2022-11-04T00:19:31;9.40;99.90
10419;DHT22;5256;48.728;9.140;2022-11-04T00:22:16;9.40;99.90
10419;DHT22;5256;48.728;9.140;2022-11-04T00:25:00;9.40;99.90
10419;DHT22;5256;48.728;9.140;2022-11-04T00:27:45;9.40;99.90
10419;DHT22;5256;48.728;9.140;2022-11-04T00:30:29;9.30;99.90
10419;DHT22;5256;48.728;9.140;2022-11-04T00:32:54;9.40;99.90
10419;DHT22;5256;48.728;9.140;2022-11-04T00:35:39;9.40;99.90
10419;DHT22;5256;48.728;9.140;2022-11-04T00:38:04;9.40;99.90
10419;DHT22;5256;48.728;9.140;2022-11-04T00:40:30;9.40;99.90
10419;DHT22;5256;48.728;9.140;2022-11-04T00:42:55;9.40;99.90
10419;DHT22;5256;48.728;9.140;2022-11-04T00:45:21;9.40;99.90
10419;DHT22;5256;48.728;9.140;2022-11-04T00:47:46;9.40;99.90
10419;DHT22;5256;48.728;9.140;2022-11-04T00:50:12;9.40;99.90
10419;DHT22;5256;48.728;9.140;2022-11-04T00:52:37;9.40;99.90
10419;DHT22;5256;48.728;9.140;2022-11-04T00:55:03;9.40;99.90
10419;DHT22;5256;48.728;9.140;2022-11-04T00:57:29;9.40;99.90
10419;DHT22;5256;48.728;9.140;2022-11-04T00:59:55;9.40;99.90
10419;DHT22;5256;48.728;9.140;2022-11-04T01:02:20;9.40;99.90
10419;DHT22;5256;48.728;9.140;2022-11-04T01:04:46;9.40;99.90
10419;DHT22;5256;48.728;9.140;2022-11-04T01:07:12;9.40;99.90
10419;DHT22;5256;48.728;9.140;2022-11-04T01:09:37;9.40;99.90
10419;DHT22;5256;48.728;9.140;2022-11-04T01:12:03;9.30;99.90
10419;DHT22;5256;48.728;9.140;2022-11-04T01:14:29;9.30;99.90
10419;DHT22;5256;48.728;9.140;2022-11-04T01:16:54;9.30;99.90
10419;DHT22;5256;48.728;9.140;2022-11-04T01:19:20;9.30;99.90
10419;DHT22;5256;48.728;9.140;2022-11-04T01:21:49;9.30;99.90
10419;DHT22;5256;48.728;9.140;2022-11-04T01:24:15;9.30;99.90
10419;DHT22;5256;48.728;9.140;2022-11-04T01:26:40;9.30;99.90
10419;DHT22;5256;48.728;9.140;2022-11-04T01:29:06;9.30;99.90
10419;DHT22;5256;48.728;9.140;2022-11-04T01:31:31;9.30;99.90
10419;DHT22;5256;48.728;9.140;2022-11-04T01:33:57;9.30;99.90
10419;DHT22;5256;48.728;9.140;2022-11-04T01:36:23;9.30;99.90
10419;DHT22;5256;48.728;9.140;2022-11-04T01:38:49;9.30;99.90
10419;DHT22;5256;48.728;9.140;2022-11-04T01:41:19;9.30;99.90
10419;DHT22;5256;48.728;9.140;2022-11-04T01:46:39;9.20;99.90
10419;DHT22;5256;48.728;9.140;2022-11-04T01:51:35;9.30;99.90
10419;DHT22;5256;48.728;9.140;2022-11-04T01:54:03;9.30;99.90
10419;DHT22;5256;48.728;9.140;2022-11-04T01:56:30;9.30;99.90
10419;DHT22;5256;48.728;9.140;2022-11-04T01:59:03;9.30;99.90
10419;DHT22;5256;48.728;9.140;2022-11-04T02:01:30;9.30;99.90
10419;DHT22;5256;48.728;9.140;2022-11-04T02:03:58;9.30;99.90
10419;DHT22;5256;48.728;9.140;2022-11-04T02:06:45;9.20;99.90
10419;DHT22;5256;48.728;9.140;2022-11-04T02:09:12;9.20;99.90
10419;DHT22;5256;48.728;9.140;2022-11-04T02:11:37;9.20;99.90
10419;DHT22;5256;48.728;9.140;2022-11-04T02:14:22;9.20;99.90
10419;DHT22;5256;48.728;9.140;2022-11-04T02:16:48;9.20;99.90
10419;DHT22;5256;48.728;9.140;2022-11-04T02:25:29;9.10;99.90
10419;DHT22;5256;48.728;9.140;2022-11-04T02:30:49;9.10;99.90
10419;DHT22;5256;48.728;9.140;2022-11-04T02:36:00;9.00;99.90
10419;DHT22;5256;48.728;9.140;2022-11-04T02:38:38;9.00;99.90
10419;DHT22;5256;48.728;9.140;2022-11-04T02:46:56;8.90;99.90
10419;DHT22;5256;48.728;9.140;2022-11-04T02:55:08;8.80;99.90
10419;DHT22;5256;48.728;9.140;2022-11-04T02:57:37;8.80;99.90
10419;DHT22;5256;48.728;9.140;2022-11-04T03:00:09;8.70;99.90
10419;DHT22;5256;48.728;9.140;2022-11-04T03:02:43;8.80;99.90
10419;DHT22;5256;48.728;9.140;2022-11-04T03:05:14;8.70;99.90
10419;DHT22;5256;48.728;9.140;2022-11-04T03:07:43;8.70;99.90
10419;DHT22;5256;48.728;9.140;2022-11-04T03:10:21;8.70;99.90
10419;DHT22;5256;48.728;9.140;2022-11-04T03:12:53;8.70;99.90
10419;DHT22;5256;48.728;9.140;2022-11-04T03:15:26;8.70;99.90
10419;DHT22;5256;48.728;9.140;2022-11-04T03:18:06;8.70;99.90
10419;DHT22;5256;48.728;9.140;2022-11-04T03:20:35;8.60;99.90
10419;DHT22;5256;48.728;9.140;2022-11-04T03:23:03;8.60;99.90
10419;DHT22;5256;48.728;9.140;2022-11-04T03:25:35;8.60;99.90
10419;DHT22;5256;48.728;9.140;2022-11-04T03:30:41;8.20;99.90
10419;DHT22;5256;48.728;9.140;2022-11-04T03:33:27;8.20;99.90
10419;DHT22;5256;48.728;9.140;2022-11-04T03:35:56;8.10;99.90
10419;DHT22;5256;48.728;9.140;2022-11-04T03:38:22;8.20;99.90
10419;DHT22;5256;48.728;9.140;2022-11-04T03:40:48;8.20;99.90
10419;DHT22;5256;48.728;9.140;2022-11-04T03:43:18;8.20;99.90
10419;DHT22;5256;48.728;9.140;2022-11-04T03:45:46;8.30;99.90
10419;DHT22;5256;48.728;9.140;2022-11-04T03:48:12;8.30;99.90
10419;DHT22;5256;48.728;9.140;2022-11-04T03:50:46;8.30;99.90
10419;DHT22;5256;48.728;9.140;2022-11-04T03:53:13;8.20;99.90
10419;DHT22;5256;48.728;9.140;2022-11-04T04:01:38;7.80;99.90
10419;DHT22;5256;48.728;9.140;2022-11-04T04:04:08;7.70;99.90
10419;DHT22;5256;48.728;9.140;2022-11-04T04:06:38;7.60;99.90
10419;DHT22;5256;48.728;9.140;2022-11-04T04:09:22;7.40;99.90
10419;DHT22;5256;48.728;9.140;2022-11-04T04:11:57;7.40;99.90
10419;DHT22;5256;48.728;9.140;2022-11-04T04:17:35;7.50;99.90
10419;DHT22;5256;48.728;9.140;2022-11-04T04:20:06;7.50;99.90
10419;DHT22;5256;48.728;9.140;2022-11-04T04:22:40;7.50;99.90
10419;DHT22;5256;48.728;9.140;2022-11-04T04:25:09;7.40;99.90
10419;DHT22;5256;48.728;9.140;2022-11-04T04:27:56;7.40;99.90
10419;DHT22;5256;48.728;9.140;2022-11-04T04:30:22;7.30;99.90
10419;DHT22;5256;48.728;9.140;2022-11-04T04:32:57;7.20;99.90
10419;DHT22;5256;48.728;9.140;2022-11-04T04:35:28;7.10;99.90
10419;DHT22;5256;48.728;9.140;2022-11-04T04:38:11;7.00;99.90
10419;DHT22;5256;48.728;9.140;2022-11-04T04:41:03;7.00;99.90
10419;DHT22;5256;48.728;9.140;2022-11-04T04:43:47;6.90;99.90
10419;DHT22;5256;48.728;9.140;2022-11-04T04:46:32;6.90;99.90
10419;DHT22;5256;48.728;9.140;2022-11-04T04:49:06;6.80;99.90
10419;DHT22;5256;48.728;9.140;2022-11-04T04:51:34;6.80;99.90
10419;DHT22;5256;48.728;9.140;2022-11-04T04:54:00;6.80;99.90
10419;DHT22;5256;48.728;9.140;2022-11-04T04:56:26;6.70;99.90
10419;DHT22;5256;48.728;9.140;2022-11-04T04:58:51;6.70;99.90
10419;DHT22;5256;48.728;9.140;2022-11-04T05:01:17;6.80;99.90
10419;DHT22;5256;48.728;9.140;2022-11-04T05:03:43;6.80;99.90
10419;DHT22;5256;48.728;9.140;2022-11-04T05:06:08;6.70;99.90
10419;DHT22;5256;48.728;9.140;2022-11-04T05:08:34;6.70;99.90
10419;DHT22;5256;48.728;9.140;2022-11-04T05:11:00;6.70;99.90
10419;DHT22;5256;48.728;9.140;2022-11-04T05:13:25;6.60;99.90
10419;DHT22;5256;48.728;9.140;2022-11-04T05:15:51;6.60;99.90
10419;DHT22;5256;48.728;9.140;2022-11-04T05:18:17;6.60;99.90
10419;DHT22;5256;48.728;9.140;2022-11-04T05:20:43;6.60;99.90
10419;DHT22;5256;48.728;9.140;2022-11-04T05:23:09;6.60;99.90
10419;DHT22;5256;48.728;9.140;2022-11-04T05:25:37;6.50;99.90
10419;DHT22;5256;48.728;9.140;2022-11-04T05:28:04;6.50;99.90
10419;DHT22;5256;48.728;9.140;2022-11-04T05:30:30;6.40;99.90
10419;DHT22;5256;48.728;9.140;2022-11-04T05:32:55;6.40;99.90
10419;DHT22;5256;48.728;9.140;2022-11-04T05:35:21;6.40;99.90
10419;DHT22;5256;48.728;9.140;2022-11-04T05:37:46;6.30;99.90
10419;DHT22;5256;48.728;9.140;2022-11-04T05:40:12;6.30;99.90
10419;DHT22;5256;48.728;9.140;2022-11-04T05:42:38;6.30;99.90
10419;DHT22;5256;48.728;9.140;2022-11-04T05:45:04;6.30;99.90
10419;DHT22;5256;48.728;9.140;2022-11-04T05:47:30;6.30;99.90
10419;DHT22;5256;48.728;9.140;2022-11-04T05:49:55;6.30;99.90
10419;DHT22;5256;48.728;9.140;2022-11-04T05:52:21;6.30;99.90
10419;DHT22;5256;48.728;9.140;2022-11-04T05:54:47;6.30;99.90
10419;DHT22;5256;48.728;9.140;2022-11-04T05:57:12;6.40;99.90
10419;DHT22;5256;48.728;9.140;2022-11-04T05:59:38;6.40;99.90
10419;DHT22;5256;48.728;9.140;2022-11-04T06:02:03;6.30;99.90
10419;DHT22;5256;48.728;9.140;2022-11-04T06:04:29;6.30;99.90
10419;DHT22;5256;48.728;9.140;2022-11-04T06:06:54;6.40;99.90
10419;DHT22;5256;48.728;9.140;2022-11-04T06:09:20;6.30;99.90
10419;DHT22;5256;48.728;9.140;2022-11-04T06:12:07;6.30;99.90
10419;DHT22;5256;48.728;9.140;2022-11-04T06:14:33;6.20;99.90
10419;DHT22;5256;48.728;9.140;2022-11-04T06:16:58;6.20;99.90
10419;DHT22;5256;48.728;9.140;2022-11-04T06:19:25;6.20;99.90
10419;DHT22;5256;48.728;9.140;2022-11-04T06:21:51;6.20;99.90
10419;DHT22;5256;48.728;9.140;2022-11-04T06:24:16;6.20;99.90
10419;DHT22;5256;48.728;9.140;2022-11-04T06:26:42;6.20;99.90
10419;DHT22;5256;48.728;9.140;2022-11-04T06:29:07;6.20;99.90
10419;DHT22;5256;48.728;9.140;2022-11-04T06:31:34;6.20;99.90
10419;DHT22;5256;48.728;9.140;2022-11-04T06:34:00;6.20;99.90
10419;DHT22;5256;48.728;9.140;2022-11-04T06:36:25;6.20;99.90
10419;DHT22;5256;48.728;9.140;2022-11-04T06:38:51;6.20;99.90
10419;DHT22;5256;48.728;9.140;2022-11-04T06:41:17;6.20;99.90
10419;DHT22;5256;48.728;9.140;2022-11-04T06:43:42;6.20;99.90
10419;DHT22;5256;48.728;9.140;2022-11-04T06:46:28;6.20;99.90
10419;DHT22;5256;48.728;9.140;2022-11-04T06:48:55;6.30;99.90
10419;DHT22;5256;48.728;9.140;2022-11-04T06:51:22;6.30;99.90
10419;DHT22;5256;48.728;9.140;2022-11-04T06:53:47;6.30;99.90
10419;DHT22;5256;48.728;9.140;2022-11-04T06:56:13;6.40;99.90
10419;DHT22;5256;48.728;9.140;2022-11-04T06:58:39;6.40;99.90
10419;DHT22;5256;48.728;9.140;2022-11-04T07:01:05;6.40;99.90
10419;DHT22;5256;48.728;9.140;2022-11-04T07:03:31;6.40;99.90
10419;DHT22;5256;48.728;9.140;2022-11-04T07:05:56;6.40;99.90
10419;DHT22;5256;48.728;9.140;2022-11-04T07:08:22;6.40;99.90
10419;DHT22;5256;48.728;9.140;2022-11-04T07:10:47;6.40;99.90
10419;DHT22;5256;48.728;9.140;2022-11-04T07:13:13;6.50;99.90
10419;DHT22;5256;48.728;9.140;2022-11-04T07:15:40;6.50;99.90
10419;DHT22;5256;48.728;9.140;2022-11-04T07:18:06;6.50;99.90
10419;DHT22;5256;48.728;9.140;2022-11-04T07:20:33;6.60;99.90
10419;DHT22;5256;48.728;9.140;2022-11-04T07:22:58;6.80;99.90
10419;DHT22;5256;48.728;9.140;2022-11-04T07:25:24;6.80;99.90
10419;DHT22;5256;48.728;9.140;2022-11-04T07:27:50;6.90;99.90
10419;DHT22;5256;48.728;9.140;2022-11-04T07:30:15;6.90;99.90
10419;DHT22;5256;48.728;9.140;2022-11-04T07:32:41;7.00;99.90
10419;DHT22;5256;48.728;9.140;2022-11-04T07:35:07;7.10;99.90
10419;DHT22;5256;48.728;9.140;2022-11-04T07:37:32;7.20;99.90
10419;DHT22;5256;48.728;9.140;2022-11-04T07:39:58;7.20;99.90
10419;DHT22;5256;48.728;9.140;2022-11-04T07:42:24;7.10;99.90
10419;DHT22;5256;48.728;9.140;2022-11-04T07:44:49;7.10;99.90
10419;DHT22;5256;48.728;9.140;2022-11-04T07:47:15;7.10;99.90
10419;DHT22;5256;48.728;9.140;2022-11-04T07:49:40;7.20;99.90
10419;DHT22;5256;48.728;9.140;2022-11-04T07:52:06;7.20;99.90
10419;DHT22;5256;48.728;9.140;2022-11-04T07:54:31;7.20;99.90
10419;DHT22;5256;48.728;9.140;2022-11-04T07:56:57;7.20;99.90
10419;DHT22;5256;48.728;9.140;2022-11-04T07:59:23;7.30;99.90
10419;DHT22;5256;48.728;9.140;2022-11-04T08:01:48;7.40;99.90
10419;DHT22;5256;48.728;9.140;2022-11-04T08:04:14;7.50;99.90
10419;DHT22;5256;48.728;9.140;2022-11-04T08:06:40;7.70;99.90
10419;DHT22;5256;48.728;9.140;2022-11-04T08:09:05;7.80;99.90
10419;DHT22;5256;48.728;9.140;2022-11-04T08:11:31;7.80;99.90
10419;DHT22;5256;48.728;9.140;2022-11-04T08:13:56;7.80;99.90
10419;DHT22;5256;48.728;9.140;2022-11-04T08:16:23;7.90;99.90
10419;DHT22;5256;48.728;9.140;2022-11-04T08:18:50;8.00;99.90
10419;DHT22;5256;48.728;9.140;2022-11-04T08:21:17;8.10;99.90
10419;DHT22;5256;48.728;9.140;2022-11-04T08:23:44;8.20;99.90
10419;DHT22;5256;48.728;9.140;2022-11-04T08:26:17;8.30;99.90
10419;DHT22;5256;48.728;9.140;2022-11-04T08:28:43;8.30;99.90
10419;DHT22;5256;48.728;9.140;2022-11-04T08:31:31;8.40;99.90
10419;DHT22;5256;48.728;9.140;2022-11-04T08:33:58;8.50;99.90
10419;DHT22;5256;48.728;9.140;2022-11-04T08:36:29;8.50;99.90
10419;DHT22;5256;48.728;9.140;2022-11-04T08:38:55;8.70;99.90
10419;DHT22;5256;48.728;9.140;2022-11-04T08:41:24;8.70;99.90
10419;DHT22;5256;48.728;9.140;2022-11-04T08:43:50;8.80;99.90
10419;DHT22;5256;48.728;9.140;2022-11-04T08:46:17;8.80;99.90
10419;DHT22;5256;48.728;9.140;2022-11-04T08:48:43;9.00;99.90
10419;DHT22;5256;48.728;9.140;2022-11-04T08:51:21;9.10;99.90
10419;DHT22;5256;48.728;9.140;2022-11-04T08:53:48;9.30;99.90
10419;DHT22;5256;48.728;9.140;2022-11-04T08:56:24;9.40;99.90
10419;DHT22;5256;48.728;9.140;2022-11-04T08:58:50;9.60;99.90
10419;DHT22;5256;48.728;9.140;2022-11-04T09:01:18;9.60;99.90
10419;DHT22;5256;48.728;9.140;2022-11-04T09:03:45;9.80;99.90
10419;DHT22;5256;48.728;9.140;2022-11-04T09:06:14;9.80;99.90
10419;DHT22;5256;48.728;9.140;2022-11-04T09:08:39;9.80;99.90
10419;DHT22;5256;48.728;9.140;2022-11-04T09:11:07;9.70;99.90
10419;DHT22;5256;48.728;9.140;2022-11-04T09:13:34;9.90;99.90
10419;DHT22;5256;48.728;9.140;2022-11-04T09:16:00;9.80;99.90
10419;DHT22;5256;48.728;9.140;2022-11-04T09:18:25;9.80;99.90
10419;DHT22;5256;48.728;9.140;2022-11-04T09:20:51;9.90;99.90
10419;DHT22;5256;48.728;9.140;2022-11-04T09:23:17;9.90;99.90
10419;DHT22;5256;48.728;9.140;2022-11-04T09:25:42;9.80;99.90
10419;DHT22;5256;48.728;9.140;2022-11-04T09:28:08;9.80;99.90
10419;DHT22;5256;48.728;9.140;2022-11-04T09:30:35;9.80;99.90
10419;DHT22;5256;48.728;9.140;2022-11-04T09:33:01;9.90;99.90
10419;DHT22;5256;48.728;9.140;2022-11-04T09:35:26;9.90;99.90
10419;DHT22;5256;48.728;9.140;2022-11-04T09:37:52;9.90;99.90
10419;DHT22;5256;48.728;9.140;2022-11-04T09:40:21;9.80;99.90
10419;DHT22;5256;48.728;9.140;2022-11-04T09:43:13;10.00;99.90
10419;DHT22;5256;48.728;9.140;2022-11-04T09:45:43;10.20;99.90
10419;DHT22;5256;48.728;9.140;2022-11-04T09:50:53;10.20;99.90
10419;DHT22;5256;48.728;9.140;2022-11-04T09:53:32;10.30;99.90
10419;DHT22;5256;48.728;9.140;2022-11-04T09:56:04;10.50;99.90
10419;DHT22;5256;48.728;9.140;2022-11-04T09:58:35;10.60;99.90
10419;DHT22;5256;48.728;9.140;2022-11-04T10:01:36;10.60;99.90
10419;DHT22;5256;48.728;9.140;2022-11-04T10:04:36;10.60;99.90
10419;DHT22;5256;48.728;9.140;2022-11-04T10:07:31;10.80;99.90
10419;DHT22;5256;48.728;9.140;2022-11-04T10:10:28;11.10;99.90
10419;DHT22;5256;48.728;9.140;2022-11-04T10:13:18;11.10;99.90
10419;DHT22;5256;48.728;9.140;2022-11-04T10:26:43;11.20;99.90
10419;DHT22;5256;48.728;9.140;2022-11-04T10:29:36;11.40;99.90
10419;DHT22;5256;48.728;9.140;2022-11-04T10:35:00;11.40;99.90
10419;DHT22;5256;48.728;9.140;2022-11-04T10:37:27;11.40;99.90
10419;DHT22;5256;48.728;9.140;2022-11-04T10:40:03;11.30;99.90
10419;DHT22;5256;48.728;9.140;2022-11-04T10:42:31;11.20;99.90
10419;DHT22;5256;48.728;9.140;2022-11-04T10:44:57;11.30;99.90
10419;DHT22;5256;48.728;9.140;2022-11-04T10:47:39;11.40;99.90
10419;DHT22;5256;48.728;9.140;2022-11-04T10:52:38;11.60;99.90
10419;DHT22;5256;48.728;9.140;2022-11-04T10:55:35;11.90;99.90
10419;DHT22;5256;48.728;9.140;2022-11-04T10:58:14;11.90;99.90
10419;DHT22;5256;48.728;9.140;2022-11-04T11:00:41;11.80;99.90
10419;DHT22;5256;48.728;9.140;2022-11-04T11:03:27;12.00;99.90
10419;DHT22;5256;48.728;9.140;2022-11-04T11:06:08;12.00;99.90
10419;DHT22;5256;48.728;9.140;2022-11-04T11:08:34;12.00;99.90
10419;DHT22;5256;48.728;9.140;2022-11-04T11:11:02;12.00;99.90
10419;DHT22;5256;48.728;9.140;2022-11-04T11:13:34;12.00;99.90
10419;DHT22;5256;48.728;9.140;2022-11-04T11:16:18;12.00;99.90
10419;DHT22;5256;48.728;9.140;2022-11-04T11:18:44;12.00;99.90
10419;DHT22;5256;48.728;9.140;2022-11-04T11:21:50;11.90;99.90
10419;DHT22;5256;48.728;9.140;2022-11-04T11:24:20;11.80;99.90
10419;DHT22;5256;48.728;9.140;2022-11-04T11:26:57;11.90;99.90
10419;DHT22;5256;48.728;9.140;2022-11-04T11:29:35;11.90;99.90
10419;DHT22;5256;48.728;9.140;2022-11-04T11:32:06;12.00;99.90
10419;DHT22;5256;48.728;9.140;2022-11-04T11:34:43;12.00;99.90
10419;DHT22;5256;48.728;9.140;2022-11-04T11:37:23;12.00;99.90
10419;DHT22;5256;48.728;9.140;2022-11-04T11:39:49;12.00;99.90
10419;DHT22;5256;48.728;9.140;2022-11-04T11:42:15;12.00;99.90
10419;DHT22;5256;48.728;9.140;2022-11-04T11:44:49;12.20;99.90
10419;DHT22;5256;48.728;9.140;2022-11-04T11:50:05;12.30;99.90
10419;DHT22;5256;48.728;9.140;2022-11-04T11:52:33;12.40;99.90
10419;DHT22;5256;48.728;9.140;2022-11-04T11:55:23;12.40;99.90
10419;DHT22;5256;48.728;9.140;2022-11-04T11:58:06;12.20;99.90
10419;DHT22;5256;48.728;9.140;2022-11-04T12:00:37;12.10;99.90
10419;DHT22;5256;48.728;9.140;2022-11-04T12:05:42;12.10;99.90
10419;DHT22;5256;48.728;9.140;2022-11-04T12:09:07;12.30;99.90
10419;DHT22;5256;48.728;9.140;2022-11-04T12:17:10;12.60;99.90
10419;DHT22;5256;48.728;9.140;2022-11-04T12:30:19;12.50;99.90
10419;DHT22;5256;48.728;9.140;2022-11-04T12:33:15;12.30;99.90
10419;DHT22;5256;48.728;9.140;2022-11-04T12:36:28;12.30;99.90
10419;DHT22;5256;48.728;9.140;2022-11-04T12:39:11;12.20;99.90
10419;DHT22;5256;48.728;9.140;2022-11-04T12:44:24;12.20;99.90
10419;DHT22;5256;48.728;9.140;2022-11-04T12:46:58;12.30;99.90
10419;DHT22;5256;48.728;9.140;2022-11-04T12:52:36;12.40;99.90
10419;DHT22;5256;48.728;9.140;2022-11-04T12:55:34;12.40;99.90
10419;DHT22;5256;48.728;9.140;2022-11-04T13:01:25;12.40;99.90
10419;DHT22;5256;48.728;9.140;2022-11-04T13:04:13;12.40;99.90
10419;DHT22;5256;48.728;9.140;2022-11-04T13:06:46;12.50;99.90
10419;DHT22;5256;48.728;9.140;2022-11-04T13:11:56;12.80;99.90
10419;DHT22;5256;48.728;9.140;2022-11-04T13:14:29;12.90;99.90
10419;DHT22;5256;48.728;9.140;2022-11-04T13:17:05;13.20;99.90
10419;DHT22;5256;48.728;9.140;2022-11-04T13:19:54;13.40;99.90
10419;DHT22;5256;48.728;9.140;2022-11-04T13:22:28;13.10;99.90
10419;DHT22;5256;48.728;9.140;2022-11-04T13:27:46;12.80;99.90
10419;DHT22;5256;48.728;9.140;2022-11-04T13:36:03;12.60;99.90
10419;DHT22;5256;48.728;9.140;2022-11-04T13:38:40;12.50;99.90
10419;DHT22;5256;48.728;9.140;2022-11-04T13:43:52;12.20;99.90
10419;DHT22;5256;48.728;9.140;2022-11-04T13:51:39;10.40;99.90
10419;DHT22;5256;48.728;9.140;2022-11-04T13:54:12;9.70;99.90
10419;DHT22;5256;48.728;9.140;2022-11-04T13:56:47;9.20;99.90
10419;DHT22;5256;48.728;9.140;2022-11-04T13:59:24;8.80;99.90
10419;DHT22;5256;48.728;9.140;2022-11-04T14:04:41;8.40;99.90
10419;DHT22;5256;48.728;9.140;2022-11-04T14:07:09;8.30;99.90
10419;DHT22;5256;48.728;9.140;2022-11-04T14:22:36;8.70;99.90
10419;DHT22;5256;48.728;9.140;2022-11-04T14:28:46;8.80;99.90
10419;DHT22;5256;48.728;9.140;2022-11-04T14:30:58;8.80;99.90
10419;DHT22;5256;48.728;9.140;2022-11-04T14:46:53;8.50;99.90
10419;DHT22;5256;48.728;9.140;2022-11-04T14:52:34;8.40;99.90
10419;DHT22;5256;48.728;9.140;2022-11-04T14:55:05;8.40;99.90
10419;DHT22;5256;48.728;9.140;2022-11-04T14:57:44;8.40;99.90
10419;DHT22;5256;48.728;9.140;2022-11-04T15:00:49;8.40;99.90
10419;DHT22;5256;48.728;9.140;2022-11-04T15:03:16;8.50;99.90
10419;DHT22;5256;48.728;9.140;2022-11-04T15:05:49;8.60;99.90
10419;DHT22;5256;48.728;9.140;2022-11-04T15:11:17;8.80;99.90
10419;DHT22;5256;48.728;9.140;2022-11-04T15:14:20;8.80;99.90
10419;DHT22;5256;48.728;9.140;2022-11-04T15:16:48;8.80;99.90
10419;DHT22;5256;48.728;9.140;2022-11-04T15:19:29;8.70;99.90
10419;DHT22;5256;48.728;9.140;2022-11-04T15:21:56;8.70;99.90
10419;DHT22;5256;48.728;9.140;2022-11-04T15:24:22;8.60;99.90
10419;DHT22;5256;48.728;9.140;2022-11-04T15:26:50;8.50;99.90
10419;DHT22;5256;48.728;9.140;2022-11-04T15:29:16;8.50;99.90
10419;DHT22;5256;48.728;9.140;2022-11-04T15:31:57;8.40;99.90
10419;DHT22;5256;48.728;9.140;2022-11-04T15:34:24;8.40;99.90
10419;DHT22;5256;48.728;9.140;2022-11-04T15:36:52;8.40;99.90
10419;DHT22;5256;48.728;9.140;2022-11-04T15:39:20;8.20;99.90
10419;DHT22;5256;48.728;9.140;2022-11-04T15:41:47;8.20;99.90
10419;DHT22;5256;48.728;9.140;2022-11-04T15:44:34;8.20;99.90
10419;DHT22;5256;48.728;9.140;2022-11-04T15:47:17;8.20;99.90
10419;DHT22;5256;48.728;9.140;2022-11-04T15:49:49;8.20;99.90
10419;DHT22;5256;48.728;9.140;2022-11-04T15:52:18;8.10;99.90
10419;DHT22;5256;48.728;9.140;2022-11-04T15:54:56;8.10;99.90
10419;DHT22;5256;48.728;9.140;2022-11-04T15:57:31;8.10;99.90
10419;DHT22;5256;48.728;9.140;2022-11-04T16:00:05;8.00;99.90
10419;DHT22;5256;48.728;9.140;2022-11-04T16:02:33;8.10;99.90
10419;DHT22;5256;48.728;9.140;2022-11-04T16:07:42;7.90;99.90
10419;DHT22;5256;48.728;9.140;2022-11-04T16:10:24;7.80;99.90
10419;DHT22;5256;48.728;9.140;2022-11-04T16:12:54;7.80;99.90
10419;DHT22;5256;48.728;9.140;2022-11-04T16:15:35;7.80;99.90
10419;DHT22;5256;48.728;9.140;2022-11-04T16:18:02;7.80;99.90
10419;DHT22;5256;48.728;9.140;2022-11-04T16:20:28;7.80;99.90
10419;DHT22;5256;48.728;9.140;2022-11-04T16:23:00;7.80;99.90
10419;DHT22;5256;48.728;9.140;2022-11-04T16:25:29;7.80;99.90
10419;DHT22;5256;48.728;9.140;2022-11-04T16:27:57;7.80;99.90
10419;DHT22;5256;48.728;9.140;2022-11-04T16:30:23;7.90;99.90
10419;DHT22;5256;48.728;9.140;2022-11-04T16:32:53;7.90;99.90
10419;DHT22;5256;48.728;9.140;2022-11-04T16:35:26;7.90;99.90
10419;DHT22;5256;48.728;9.140;2022-11-04T16:37:53;7.90;99.90
10419;DHT22;5256;48.728;9.140;2022-11-04T16:40:21;8.00;99.90
10419;DHT22;5256;48.728;9.140;2022-11-04T16:42:48;8.20;99.90
10419;DHT22;5256;48.728;9.140;2022-11-04T16:45:34;8.40;99.90
10419;DHT22;5256;48.728;9.140;2022-11-04T16:48:01;8.40;99.90
10419;DHT22;5256;48.728;9.140;2022-11-04T16:50:27;8.40;99.90
10419;DHT22;5256;48.728;9.140;2022-11-04T16:52:53;8.40;99.90
10419;DHT22;5256;48.728;9.140;2022-11-04T16:55:20;8.40;99.90
10419;DHT22;5256;48.728;9.140;2022-11-04T16:57:52;8.40;99.90
10419;DHT22;5256;48.728;9.140;2022-11-04T17:00:21;8.30;99.90
10419;DHT22;5256;48.728;9.140;2022-11-04T17:02:48;8.30;99.90
10419;DHT22;5256;48.728;9.140;2022-11-04T17:05:14;8.30;99.90
10419;DHT22;5256;48.728;9.140;2022-11-04T17:07:40;8.10;99.90
10419;DHT22;5256;48.728;9.140;2022-11-04T17:10:20;8.00;99.90
10419;DHT22;5256;48.728;9.140;2022-11-04T17:12:46;8.00;99.90
10419;DHT22;5256;48.728;9.140;2022-11-04T17:15:13;8.00;99.90
10419;DHT22;5256;48.728;9.140;2022-11-04T17:17:39;7.90;99.90
10419;DHT22;5256;48.728;9.140;2022-11-04T17:20:05;7.90;99.90
10419;DHT22;5256;48.728;9.140;2022-11-04T17:22:32;7.90;99.90
10419;DHT22;5256;48.728;9.140;2022-11-04T17:24:59;7.90;99.90
10419;DHT22;5256;48.728;9.140;2022-11-04T17:27:24;7.90;99.90
10419;DHT22;5256;48.728;9.140;2022-11-04T17:29:50;8.00;99.90
10419;DHT22;5256;48.728;9.140;2022-11-04T17:32:16;8.00;99.90
10419;DHT22;5256;48.728;9.140;2022-11-04T17:34:41;8.00;99.90
10419;DHT22;5256;48.728;9.140;2022-11-04T17:37:10;8.10;99.90
10419;DHT22;5256;48.728;9.140;2022-11-04T17:39:37;8.10;99.90
10419;DHT22;5256;48.728;9.140;2022-11-04T17:42:02;8.10;99.90
10419;DHT22;5256;48.728;9.140;2022-11-04T17:44:46;8.10;99.90
10419;DHT22;5256;48.728;9.140;2022-11-04T17:47:12;8.00;99.90
10419;DHT22;5256;48.728;9.140;2022-11-04T17:49:38;8.00;99.90
10419;DHT22;5256;48.728;9.140;2022-11-04T17:52:03;7.90;99.90
10419;DHT22;5256;48.728;9.140;2022-11-04T17:54:29;7.80;99.90
10419;DHT22;5256;48.728;9.140;2022-11-04T17:56:55;7.80;99.90
10419;DHT22;5256;48.728;9.140;2022-11-04T17:59:21;7.70;99.90
10419;DHT22;5256;48.728;9.140;2022-11-04T18:01:47;7.70;99.90
10419;DHT22;5256;48.728;9.140;2022-11-04T18:04:16;7.70;99.90
10419;DHT22;5256;48.728;9.140;2022-11-04T18:06:42;7.70;99.90
10419;DHT22;5256;48.728;9.140;2022-11-04T18:09:09;7.70;99.90
10419;DHT22;5256;48.728;9.140;2022-11-04T18:11:36;7.60;99.90
10419;DHT22;5256;48.728;9.140;2022-11-04T18:14:20;7.60;99.90
10419;DHT22;5256;48.728;9.140;2022-11-04T18:16:47;7.60;99.90
10419;DHT22;5256;48.728;9.140;2022-11-04T18:19:16;7.60;99.90
10419;DHT22;5256;48.728;9.140;2022-11-04T18:21:42;7.50;99.90
10419;DHT22;5256;48.728;9.140;2022-11-04T18:24:08;7.40;99.90
10419;DHT22;5256;48.728;9.140;2022-11-04T18:26:34;7.40;99.90
10419;DHT22;5256;48.728;9.140;2022-11-04T18:29:00;7.40;99.90
10419;DHT22;5256;48.728;9.140;2022-11-04T18:31:28;7.40;99.90
10419;DHT22;5256;48.728;9.140;2022-11-04T18:33:57;7.60;99.90
10419;DHT22;5256;48.728;9.140;2022-11-04T18:36:22;7.70;99.90
10419;DHT22;5256;48.728;9.140;2022-11-04T18:38:48;7.70;99.90
10419;DHT22;5256;48.728;9.140;2022-11-04T18:41:14;7.70;99.90
10419;DHT22;5256;48.728;9.140;2022-11-04T18:43:40;7.60;99.90
10419;DHT22;5256;48.728;9.140;2022-11-04T18:46:09;7.50;99.90
10419;DHT22;5256;48.728;9.140;2022-11-04T18:48:35;7.40;99.90
10419;DHT22;5256;48.728;9.140;2022-11-04T18:51:02;7.30;99.90
10419;DHT22;5256;48.728;9.140;2022-11-04T18:53:28;7.30;99.90